Tiempo atmosférico en la estación meteorológica de Tornavacas, Cáceres (991 m.)



Fecha
DESCASC
Temp. máxima en grados centígrados (hora)
DESCASC
Temp. mínima en grados centígrados (hora)
DESCASC
Temp. media en grados centígrados
DESCASC
Racha de viento máxima en m/sg (hora)
DESCASC
Velocidad máxima media en intervalos de 10 minutos(hora)
DESCASC
Precipitaciones diarias en mm
DESCASC
Precipitaciones de 00:00 a 06:00 en mm
DESCASC
Precipitaciones de 06:00 a 12:00 en mm
DESCASC
Precipitaciones de 12:00 a 18:00 en mm
DESCASC
Precipitaciones de 18:00 a 24:00 en mm
DESCASC
06-07-2020 35 (17:20) 21.4 (05:30) 28.2 11.11 (05:20) 8.61 (05:00) 0 0 0 0 0
05-07-2020 33.8 (17:40) 19.9 (06:50) 26.8 11.39 (04:00) 8.06 (07:30) 0 0 0 0 0
04-07-2020 31.8 (17:50) 17.3 (05:50) 24.5 12.5 (05:00) 9.72 (05:00) 0 0 0 0 0
03-07-2020 29.3 (18:50) 13.9 (06:50) 21.6 14.17 (02:20) 8.33 (06:00) 0 0 0 0 0
02-07-2020 27 (16:20) 15.8 (00:00) 21.4 12.5 (06:40) 9.72 (07:10) 0 0 0 0 0
01-07-2020 30.2 (17:00) 15.6 (00:00) 22.9 9.17 (15:40) 5.56 (16:50) 0 0 0 0 0
30-06-2020 32.3 (16:30) 20.8 (00:00) 26.5 10.28 (00:40) 7.5 (04:10) 0 0 0 0 0
29-06-2020 31.8 (19:30) 17.2 (00:00) 24.5 11.39 (03:20) 8.06 (03:30) 0 0 0 0 0
28-06-2020 30.8 (18:20) 16 (00:00) 23.4 12.22 (04:20) 8.33 (05:20) 0 0 0 0 0
27-06-2020 28.3 (18:40) 14.4 (00:00) 21.3 12.5 (05:20) 8.61 (06:10) 0 0 0 0 0
26-06-2020 25.4 (17:10) 14 (00:00) 19.7 9.44 (14:10) 6.67 (14:20) 0 0 0 0 0
25-06-2020 29.2 (17:50) 18.7 (00:00) 24 13.61 (16:40) 6.39 (16:40) 0 0 0 0 0
24-06-2020 31.9 (18:00) 21.5 (00:00) 26.7 11.39 (16:40) 6.67 (02:20) 0 0 0 0 0
23-06-2020 33.5 (18:10) 21.2 (00:00) 27.4 12.78 (07:20) 8.33 (08:00) 0 0 0 0 0
22-06-2020 32.3 (16:40) 17.7 (00:00) 25 13.89 (05:20) 8.33 (05:10) 0 0 0 0 0
21-06-2020 29.6 (18:00) 15 (00:00) 22.3 16.39 (05:20) 9.72 (05:00) 0 0 0 0 0
20-06-2020 27.9 (16:10) 14.5 (00:00) 21.2 13.89 (04:20) 7.78 (04:50) 0 0 0 0 0
19-06-2020 26.3 (18:10) 12.8 (00:00) 19.5 11.94 (06:20) 7.78 (03:30) 0 0 0 0 0
18-06-2020 25.4 (18:20) 12.4 (00:00) 18.9 11.67 (04:20) 8.33 (08:10) 0 0 0 0 0
17-06-2020 23.1 (17:50) 9.9 (00:00) 16.5 11.67 (05:20) 7.5 (06:20) 0 0 0 0 0
16-06-2020 22.5 (16:10) 11.9 (00:00) 17.2 11.39 (07:50) 7.5 (07:30) 0 0 0 0 0
15-06-2020 23.3 (17:20) 10.9 (00:00) 17.1 11.67 (10:20) 7.78 (06:40) 0 0 0 0 0
14-06-2020 22.3 (18:00) 9.3 (00:00) 15.8 10 (18:20) 6.39 (05:40) 0 0 0 0 0
13-06-2020 19.1 (15:50) 6.5 (00:00) 12.8 10.28 (16:20) 6.11 (15:40) 0.8 0.8 0 0 0
12-06-2020 13.8 (17:30) 5.8 (00:00) 9.8 15 (19:10) 8.89 (19:10) 3.8 0 0.2 2 1.6
11-06-2020 19 (13:50) 10.3 (00:00) 14.7 17.78 (19:20) 9.17 (19:10) 0 0 0 0 0

Gráficas

Temp. máximas Temp. mínimas Temp. medias Precipitaciones Rachas de viento máximas Velocidades máximas media en intervalos de 10 minutos

Datos horarios

Fecha y hora oficial Temperatura (ºC) Velocidad del viento (km/h) Dirección del viento Racha (km/h) Dirección de racha Precipitación (mm) Presión (hPa) Tendencia (hPa) Humedad (%)
2020-07-10 23:00:00 25.5 15 Este 26 Nordeste 0 -- -- 37
2020-07-10 22:00:00 25.1 17 Nordeste 24 Nordeste 0 -- -- 39
2020-07-10 21:00:00 26.6 12 Nordeste 19 Nordeste 0 -- -- 38
2020-07-10 20:00:00 29.5 12 Nordeste 23 Nordeste 0 -- -- 35
2020-07-10 19:00:00 30.3 12 Nordeste 24 Nordeste 0 -- -- 29
2020-07-10 18:00:00 30.5 15 Nordeste 26 Norte 0 -- -- 28
2020-07-10 17:00:00 30.7 11 Este 27 Este 0 -- -- 28
2020-07-10 16:00:00 30.3 13 Este 24 Este 0 -- -- 27
2020-07-10 15:00:00 30.5 10 Sudoeste 24 Sudoeste 0 -- -- 33
2020-07-10 14:00:00 28.6 15 Sudoeste 22 Sudoeste 0 -- -- 38
2020-07-10 13:00:00 27.1 8 Sudoeste 15 Sudoeste 0 -- -- 39
2020-07-10 12:00:00 25.6 10 Sudoeste 15 Sudoeste 0 -- -- 40
2020-07-10 11:00:00 24.6 8 Sudoeste 15 Nordeste 0 -- -- 44
2020-07-10 10:00:00 23.1 7 Este 25 Nordeste 0 -- -- 46
2020-07-10 09:00:00 21.2 13 Nordeste 30 Nordeste 0 -- -- 48
2020-07-10 08:00:00 21 17 Este 34 Nordeste 0 -- -- 44
2020-07-10 07:00:00 19.2 22 Nordeste 28 Nordeste 0 -- -- 51
2020-07-10 06:00:00 20.9 17 Este 36 Nordeste 0 -- -- 45
2020-07-10 05:00:00 20 18 Nordeste 30 Nordeste 0 -- -- 48
2020-07-10 04:00:00 19.8 7 Nordeste 18 Este 0 -- -- 47
2020-07-10 03:00:00 20.1 7 Este 12 Sudeste 0 -- -- 46
2020-07-10 02:00:00 21.3 8 Este 21 Nordeste 0 -- -- 45
2020-07-10 01:00:00 22.3 9 Este 18 Este 0 -- -- 43
2020-07-10 00:00:00 23.5 2 Sur 20 Nordeste 0 -- -- 41
2020-07-09 23:00:00 24.9 12 Este 21 Nordeste 0 -- -- 37
2020-07-09 22:00:00 24.3 5 Sudeste 12 Nordeste 0 -- -- 45
2020-07-09 21:00:00 26.5 6 Nordeste 14 Norte 0 -- -- 45
2020-07-09 20:00:00 29.4 5 Norte 13 Oeste 0 -- -- 38
2020-07-09 19:00:00 29.9 7 Oeste 18 Oeste 0 -- -- 32
2020-07-09 18:00:00 29 7 Sudoeste 17 Sudoeste 0 -- -- 37
2020-07-09 17:00:00 28.2 10 Sudoeste 20 Sudoeste 0 -- -- 41
2020-07-09 16:00:00 28.1 6 Sudoeste 25 Sudoeste 0 -- -- 36
2020-07-09 15:00:00 29.2 10 Sudoeste 23 Sudoeste 0 -- -- 32
2020-07-09 14:00:00 27.1 11 Sudoeste 27 Sudoeste 0 -- -- 38
2020-07-09 13:00:00 26.3 13 Sudoeste 22 Sudoeste 0 -- -- 42
2020-07-09 12:00:00 25.9 10 Sudoeste 16 Sudoeste 0 -- -- 42
2020-07-09 11:00:00 24.6 9 Sudoeste 14 Sudoeste 0 -- -- 46
2020-07-09 10:00:00 24.1 3 Sudoeste 14 Sudeste 0 -- -- 45
2020-07-09 09:00:00 19.5 12 Sudeste 16 Sudeste 0 -- -- 56
2020-07-09 08:00:00 18.2 6 Este 14 Sudeste 0 -- -- 55
2020-07-09 07:00:00 18.1 6 Este 15 Sudeste 0 -- -- 51
2020-07-09 06:00:00 19.6 10 Sudeste 17 Este 0 -- -- 43
2020-07-09 05:00:00 18.8 6 Este 28 Nordeste 0 -- -- 44
2020-07-09 04:00:00 22.9 17 Nordeste 31 Este 0 -- -- 35
2020-07-09 03:00:00 23.6 24 Este 34 Este 0 -- -- 33
2020-07-09 02:00:00 23.9 17 Este 28 Este 0 -- -- 27
2020-07-09 01:00:00 22.2 12 Este 24 Nordeste 0 -- -- 30
2020-07-09 00:00:00 21.7 10 Nordeste 16 Este 0 -- -- 34
2020-07-08 23:00:00 22.9 8 Este 16 Sudeste 0 -- -- 31
2020-07-08 22:00:00 22.8 8 Este 13 Nordeste 0 -- -- 35
2020-07-08 21:00:00 27.1 7 Nordeste 14 Oeste 0 -- -- 33
2020-07-08 20:00:00 30.9 12 Oeste 29 Sudoeste 0 -- -- 26
2020-07-08 19:00:00 31.8 18 Oeste 33 Sudoeste 0 -- -- 27
2020-07-08 18:00:00 31.8 22 Sudoeste 46 Oeste 0 -- -- 29
2020-07-08 17:00:00 32.9 22 Sudoeste 38 Sudoeste 0 -- -- 25
2020-07-08 16:00:00 32.9 21 Oeste 44 Oeste 0 -- -- 26
2020-07-08 15:00:00 31.1 19 Oeste 40 Oeste 0 -- -- 26
2020-07-08 14:00:00 30.6 12 Sudeste 49 Este 0 -- -- 26
2020-07-08 13:00:00 30.6 10 Sudoeste 27 Sudeste 0 -- -- 26
2020-07-08 12:00:00 30.1 8 Oeste 13 Sudoeste 0 -- -- 31
2020-07-08 11:00:00 28.2 8 Sudoeste 13 Sudoeste 0 -- -- 33
2020-07-08 10:00:00 26.2 4 Nordeste 10 Sudeste 0 -- -- 43
2020-07-08 09:00:00 23.1 5 Este 18 Nordeste 0 -- -- 41
2020-07-08 08:00:00 21.9 8 Nordeste 15 Sudeste 0 -- -- 40
2020-07-08 07:00:00 22 7 Este 15 Nordeste 0 -- -- 39
2020-07-08 06:00:00 25.5 10 Nordeste 24 Este 0 -- -- 30
2020-07-08 05:00:00 24.5 10 Sudeste 18 Este 0 -- -- 32
2020-07-08 04:00:00 24.9 9 Este 17 Nordeste 0 -- -- 30
2020-07-08 03:00:00 24.4 6 Este 19 Este 0 -- -- 29
2020-07-08 02:00:00 25 11 Nordeste 20 Nordeste 0 -- -- 30
2020-07-08 01:00:00 24.5 9 Este 16 Este 0 -- -- 31
2020-07-08 00:00:00 25.1 9 Este 13 Este 0 -- -- 30
2020-07-07 23:00:00 25.1 7 Este 14 Nordeste 0 -- -- 30
2020-07-07 22:00:00 25.3 7 Este 14 Nordeste 0 -- -- 31
2020-07-07 21:00:00 27.1 10 Nordeste 15 Nordeste 0 -- -- 34
2020-07-07 20:00:00 30 10 Nordeste 15 Oeste 0 -- -- 33
2020-07-07 19:00:00 33.9 12 Oeste 32 Sudoeste 0 -- -- 20
2020-07-07 18:00:00 34.1 21 Sudoeste 35 Sudoeste 0 -- -- 18
2020-07-07 17:00:00 34 14 Sudoeste 33 Sudoeste 0 -- -- 24
2020-07-07 16:00:00 33.5 19 Sudoeste 29 Sudoeste 0 -- -- 21
2020-07-07 15:00:00 33.1 17 Sudoeste 30 Sudoeste 0 -- -- 23
2020-07-07 14:00:00 32.7 17 Oeste 30 Oeste 0 -- -- 25
2020-07-07 13:00:00 32.3 16 Oeste 27 Oeste 0 -- -- 27
2020-07-07 12:00:00 30.8 13 Sudoeste 21 Sudoeste 0 -- -- 36
2020-07-07 11:00:00 29.4 4 Oeste 9 Oeste 0 -- -- 42
2020-07-07 10:00:00 27.3 4 Oeste 15 Sudeste 0 -- -- 46
2020-07-07 09:00:00 23.1 10 Sudeste 15 Sudeste 0 -- -- 52
2020-07-07 08:00:00 21.6 8 Este 14 Este 0 -- -- 55
2020-07-07 07:00:00 21.8 11 Este 16 Sudeste 0 -- -- 52
2020-07-07 06:00:00 22.7 13 Sudeste 18 Sudeste 0 -- -- 48
2020-07-07 05:00:00 23.3 10 Nordeste 26 Nordeste 0 -- -- 44
2020-07-07 04:00:00 23.3 19 Nordeste 30 Nordeste 0 -- -- 48
2020-07-07 03:00:00 25 22 Nordeste 32 Nordeste 0 -- -- 45
2020-07-07 02:00:00 25.1 18 Nordeste 30 Nordeste 0 -- -- 44
2020-07-07 01:00:00 26.8 18 Este 27 Nordeste 0 -- -- 41
2020-07-07 00:00:00 27.2 17 Este 23 Este 0 -- -- 39
2020-07-06 23:00:00 27.3 13 Este 21 Este 0 -- -- 39
2020-07-06 22:00:00 27.4 9 Este 28 Nordeste 0 -- -- 39
2020-07-06 21:00:00 28.7 12 Nordeste 20 Nordeste 0 -- -- 41
2020-07-06 20:00:00 30.7 6 Nordeste 14 Nordeste 0 -- -- 41
2020-07-06 19:00:00 31.7 11 Norte 17 Nordeste 0 -- -- 38
2020-07-06 18:00:00 34.1 5 Nordeste 21 Sudoeste 0 -- -- 27
2020-07-06 17:00:00 34.5 13 Sudoeste 26 Oeste 0 -- -- 26
2020-07-06 16:00:00 33.6 16 Sudoeste 26 Sudoeste 0 -- -- 26
2020-07-06 15:00:00 34 14 Sudoeste 25 Oeste 0 -- -- 26
2020-07-06 14:00:00 33.2 11 Sudoeste 19 Sudoeste 0 -- -- 26
2020-07-06 13:00:00 32.2 6 Nordeste 18 Nordeste 0 -- -- 26
2020-07-06 12:00:00 30.4 10 Nordeste 20 Nordeste 0 -- -- 33
2020-07-06 11:00:00 28 15 Nordeste 27 Nordeste 0 -- -- 36
2020-07-06 10:00:00 25.9 19 Nordeste 38 Nordeste 0 -- -- 36
2020-07-06 09:00:00 23.1 24 Nordeste 39 Nordeste 0 -- -- 40
2020-07-06 08:00:00 21.9 22 Nordeste 33 Nordeste 0 -- -- 38
2020-07-06 07:00:00 22.1 14 Nordeste 35 Nordeste 0 -- -- 36
2020-07-06 06:00:00 22.3 18 Nordeste 40 Nordeste 0 -- -- 36
2020-07-06 05:00:00 21.8 31 Nordeste 40 Nordeste 0 -- -- 37
2020-07-06 04:00:00 23.7 19 Nordeste 31 Nordeste 0 -- -- 33
2020-07-06 03:00:00 24.5 13 Este 30 Este 0 -- -- 32
2020-07-06 02:00:00 25.8 17 Este 28 Nordeste 0 -- -- 29
2020-07-06 01:00:00 26.2 14 Este 25 Este 0 -- -- 29
2020-07-06 00:00:00 24.4 19 Nordeste 38 Nordeste 0 -- -- 31
2020-07-05 23:00:00 23.8 6 Este 13 Nordeste 0 -- -- 32
2020-07-05 22:00:00 24.6 8 Este 18 Norte 0 -- -- 34
2020-07-05 21:00:00 26.4 14 Nordeste 18 Nordeste 0 -- -- 42
2020-07-05 20:00:00 31.8 6 Nordeste 18 Sudoeste 0 -- -- 31
2020-07-05 19:00:00 33.5 13 Sudoeste 25 Sudoeste 0 -- -- 22
2020-07-05 18:00:00 33 9 Sur 25 Sudoeste 0 -- -- 21
2020-07-05 17:00:00 33.4 7 Sudoeste 26 Sudoeste 0 -- -- 22
2020-07-05 16:00:00 33.1 13 Sudoeste 23 Sudoeste 0 -- -- 22
2020-07-05 15:00:00 32.7 11 Oeste 22 Sudoeste 0 -- -- 21
2020-07-05 14:00:00 32 13 Sudoeste 23 Sudoeste 0 -- -- 21
2020-07-05 13:00:00 31.2 13 Sudoeste 21 Sudoeste 0 -- -- 21
2020-07-05 12:00:00 30.2 5 Sudoeste 25 Nordeste 0 -- -- 24
2020-07-05 11:00:00 26.3 18 Nordeste 39 Nordeste 0 -- -- 30
2020-07-05 10:00:00 23.6 24 Nordeste 35 Nordeste 0 -- -- 35
2020-07-05 09:00:00 23.2 24 Nordeste 32 Nordeste 0 -- -- 29
2020-07-05 08:00:00 21 19 Nordeste 39 Nordeste 0 -- -- 32
2020-07-05 07:00:00 19.9 23 Nordeste 36 Nordeste 0 -- -- 33
2020-07-05 06:00:00 21.7 16 Nordeste 33 Este 0 -- -- 30
2020-07-05 05:00:00 22 23 Nordeste 39 Nordeste 0 -- -- 28
2020-07-05 04:00:00 21.6 28 Nordeste 41 Nordeste 0 -- -- 29
2020-07-05 03:00:00 24.1 19 Este 33 Este 0 -- -- 24
2020-07-05 02:00:00 24 22 Este 32 Este 0 -- -- 24
2020-07-05 01:00:00 24 21 Este 34 Este 0 -- -- 25
2020-07-05 00:00:00 24 20 Este 35 Este 0 -- -- 26
2020-07-04 23:00:00 23.1 22 Nordeste 32 Nordeste 0 -- -- 29
2020-07-04 22:00:00 25 15 Este 27 Este 0 -- -- 28
2020-07-04 21:00:00 26.4 15 Nordeste 21 Nordeste 0 -- -- 36
2020-07-04 20:00:00 29.4 11 Nordeste 18 Nordeste 0 -- -- 33
2020-07-04 19:00:00 31.1 10 Norte 20 Norte 0 -- -- 26
2020-07-04 18:00:00 31.8 6 Norte 23 Sudoeste 0 -- -- 24
2020-07-04 17:00:00 30.9 14 Sudoeste 27 Sudoeste 0 -- -- 27
2020-07-04 16:00:00 30.9 10 Sudoeste 23 Oeste 0 -- -- 28
2020-07-04 15:00:00 29.9 10 Sudoeste 19 Sudoeste 0 -- -- 27
2020-07-04 14:00:00 29.2 11 Sudoeste 18 Sudoeste 0 -- -- 27
2020-07-04 13:00:00 27.7 13 Sudoeste 19 Sudoeste 0 -- -- 30
2020-07-04 12:00:00 26.9 5 Este 28 Nordeste 0 -- -- 28
2020-07-04 11:00:00 23.8 18 Nordeste 30 Este 0 -- -- 34
2020-07-04 10:00:00 21.6 22 Este 32 Este 0 -- -- 37
2020-07-04 09:00:00 20.8 19 Este 32 Este 0 -- -- 37
2020-07-04 08:00:00 17.4 20 Nordeste 33 Nordeste 0 -- -- 42
2020-07-04 07:00:00 19.5 23 Nordeste 42 Nordeste 0 -- -- 35
2020-07-04 06:00:00 17.4 24 Nordeste 43 Este 0 -- -- 40
2020-07-04 05:00:00 18.8 35 Nordeste 45 Nordeste 0 -- -- 37
2020-07-04 04:00:00 19.4 16 Nordeste 33 Nordeste 0 -- -- 36
2020-07-04 03:00:00 21 19 Este 32 Este 0 -- -- 33
2020-07-04 02:00:00 20.9 20 Este 32 Este 0 -- -- 33
2020-07-04 01:00:00 21.1 18 Este 30 Este 0 -- -- 32
2020-07-04 00:00:00 19.7 22 Nordeste 31 Nordeste 0 -- -- 36
2020-07-03 23:00:00 20.4 18 Nordeste 26 Nordeste 0 -- -- 34
2020-07-03 22:00:00 23.2 15 Este 24 Este 0 -- -- 29
2020-07-03 21:00:00 24.5 13 Nordeste 25 Nordeste 0 -- -- 33
2020-07-03 20:00:00 27.3 12 Nordeste 23 Norte 0 -- -- 31
2020-07-03 19:00:00 29.1 10 Sudoeste 23 Sudoeste 0 -- -- 31
2020-07-03 18:00:00 28.5 15 Sudoeste 25 Oeste 0 -- -- 34
2020-07-03 17:00:00 28.6 12 Sudoeste 21 Sudoeste 0 -- -- 35
2020-07-03 16:00:00 27.4 13 Sudoeste 23 Sudoeste 0 -- -- 35
2020-07-03 15:00:00 27 13 Sudoeste 22 Oeste 0 -- -- 36
2020-07-03 14:00:00 26 11 Sudoeste 21 Sudoeste 0 -- -- 36
2020-07-03 13:00:00 24.6 9 Sudoeste 21 Nordeste 0 -- -- 38
2020-07-03 12:00:00 22.8 8 Nordeste 26 Nordeste 0 -- -- 41
2020-07-03 11:00:00 19.9 20 Nordeste 33 Nordeste 0 -- -- 47
2020-07-03 10:00:00 17.8 21 Este 35 Nordeste 0 -- -- 53
2020-07-03 09:00:00 15 24 Nordeste 33 Nordeste 0 -- -- 61
2020-07-03 08:00:00 15.4 22 Este 39 Este 0 -- -- 56
2020-07-03 07:00:00 13.9 26 Nordeste 42 Nordeste 0 -- -- 60
2020-07-03 06:00:00 14.6 30 Este 44 Este 0 -- -- 59
2020-07-03 05:00:00 15 19 Nordeste 41 Este 0 -- -- 57
2020-07-03 04:00:00 14.1 26 Nordeste 40 Nordeste 0 -- -- 60
2020-07-03 03:00:00 15.6 17 Nordeste 51 Nordeste 0 -- -- 55
2020-07-03 02:00:00 14.8 27 Nordeste 42 Este 0 -- -- 54
2020-07-03 01:00:00 16.3 22 Nordeste 33 Nordeste 0 -- -- 47
2020-07-03 00:00:00 17.9 15 Nordeste 31 Nordeste 0 -- -- 46
2020-07-02 23:00:00 18.9 20 Nordeste 29 Nordeste 0 -- -- 43
2020-07-02 22:00:00 20.9 9 Este 21 Este 0 -- -- 35
2020-07-02 21:00:00 22.9 10 Nordeste 23 Sudoeste 0 -- -- 44
2020-07-02 20:00:00 25.9 14 Sudoeste 32 Sudoeste 0 -- -- 36
2020-07-02 19:00:00 26.2 16 Sudoeste 31 Sudoeste 0 -- -- 39
2020-07-02 18:00:00 26 22 Sudoeste 35 Sudoeste 0 -- -- 37
2020-07-02 17:00:00 26.2 16 Oeste 33 Sudoeste 0 -- -- 39
2020-07-02 16:00:00 26.6 14 Sudoeste 33 Sudoeste 0 -- -- 40
2020-07-02 15:00:00 26.2 22 Sudoeste 34 Sudoeste 0 -- -- 37
2020-07-02 14:00:00 25.8 16 Sudoeste 32 Sudoeste 0 -- -- 39
2020-07-02 13:00:00 25.5 18 Sudoeste 29 Sudoeste 0 -- -- 35
2020-07-02 12:00:00 24.5 16 Sudoeste 25 Sudoeste 0 -- -- 38
2020-07-02 11:00:00 21.5 14 Nordeste 36 Nordeste 0 -- -- 58
2020-07-02 10:00:00 18.5 27 Nordeste 39 Nordeste 0 -- -- 68
2020-07-02 09:00:00 17 22 Nordeste 42 Nordeste 0 -- -- 72
2020-07-02 08:00:00 15.8 25 Nordeste 45 Norte 0 -- -- 74
2020-07-02 07:00:00 15.9 33 Nordeste 45 Nordeste 0 -- -- 71
2020-07-02 06:00:00 17.1 27 Este 41 Nordeste 0 -- -- 65
2020-07-02 05:00:00 18.4 22 Nordeste 35 Nordeste 0 -- -- 60
2020-07-02 04:00:00 18.8 21 Nordeste 39 Nordeste 0 -- -- 57
2020-07-02 03:00:00 18.8 24 Este 40 Nordeste 0 -- -- 61
2020-07-02 02:00:00 19.2 19 Nordeste 30 Nordeste 0 -- -- 61
2020-07-02 01:00:00 19.9 21 Este 35 Este 0 -- -- 58
2020-07-02 00:00:00 21.4 16 Nordeste 27 Nordeste 0 -- -- 51
2020-07-01 23:00:00 20.9 5 Este 14 Nordeste 0 -- -- 53
2020-07-01 22:00:00 22.9 8 Nordeste 11 Nordeste 0 -- -- 49
2020-07-01 21:00:00 26.3 5 Sur 23 Oeste 0 -- -- 42
2020-07-01 20:00:00 28.7 16 Sudoeste 28 Sudoeste 0 -- -- 34
2020-07-01 19:00:00 29.5 12 Sudoeste 29 Sudoeste 0 -- -- 35
2020-07-01 18:00:00 29.6 17 Sudoeste 31 Sudoeste 0 -- -- 36
2020-07-01 17:00:00 30.2 18 Sudoeste 31 Sudoeste 0 -- -- 35
2020-07-01 16:00:00 29.1 17 Sudoeste 33 Sudoeste 0 -- -- 38
2020-07-01 15:00:00 29.2 17 Oeste 30 Oeste 0 -- -- 38
2020-07-01 14:00:00 27.3 14 Sudoeste 23 Sudoeste 0 -- -- 43
2020-07-01 13:00:00 26.3 13 Sudoeste 19 Sudoeste 0 -- -- 40
2020-07-01 12:00:00 25.9 7 Sudoeste 12 Sudoeste 0 -- -- 37
2020-07-01 11:00:00 25.2 4 Sudoeste 17 Nordeste 0 -- -- 35
2020-07-01 10:00:00 21.7 12 Nordeste 19 Nordeste 0 -- -- 54
2020-07-01 09:00:00 18.7 8 Este 15 Sudeste 0 -- -- 60
2020-07-01 08:00:00 16.4 7 Sudeste 12 Nordeste 0 -- -- 58
2020-07-01 07:00:00 18 4 Oeste 18 Norte 0 -- -- 46
2020-07-01 06:00:00 19.6 6 Este 15 Nordeste 0 -- -- 39
2020-07-01 05:00:00 19.7 7 Este 19 Nordeste 0 -- -- 42
2020-07-01 04:00:00 21 9 Este 26 Nordeste 0 -- -- 49
2020-07-01 03:00:00 21.4 19 Nordeste 28 Nordeste 0 -- -- 45
2020-07-01 02:00:00 19.5 8 Este 14 Este 0 -- -- 53
2020-07-01 01:00:00 21.5 9 Nordeste 17 Sudeste 0 -- -- 47
2020-07-01 00:00:00 22.8 9 Sudeste 18 Sudeste 0 -- -- 41
2020-06-30 23:00:00 22.3 11 Sudeste 15 Sudeste 0 -- -- 47
2020-06-30 22:00:00 24.2 6 Este 11 Sudeste 0 -- -- 47
2020-06-30 21:00:00 26.2 8 Nordeste 11 Norte 0 -- -- 46
2020-06-30 20:00:00 28.6 3 Sur 28 Oeste 0 -- -- 38
2020-06-30 19:00:00 31.7 17 Sudoeste 36 Sudoeste 0 -- -- 30
2020-06-30 18:00:00 32 19 Sudoeste 35 Oeste 0 -- -- 31
2020-06-30 17:00:00 32 17 Sudoeste 29 Oeste 0 -- -- 31
2020-06-30 16:00:00 32 14 Sudoeste 31 Sudoeste 0 -- -- 31
2020-06-30 15:00:00 31.5 19 Sudoeste 32 Sudoeste 0 -- -- 31
2020-06-30 14:00:00 31.1 15 Sudoeste 25 Sudoeste 0 -- -- 33
2020-06-30 13:00:00 29.6 15 Sudoeste 23 Sudoeste 0 -- -- 36
2020-06-30 12:00:00 29.3 12 Sudoeste 16 Sudoeste 0 -- -- 33
2020-06-30 11:00:00 28.9 4 Sur 7 Sudoeste 0 -- -- 36
2020-06-30 10:00:00 26.6 3 Sudeste 13 Este 0 -- -- 41
2020-06-30 09:00:00 23.1 8 Este 22 Nordeste 0 -- -- 50
2020-06-30 08:00:00 22.3 12 Nordeste 18 Nordeste 0 -- -- 46
2020-06-30 07:00:00 22.2 13 Nordeste 27 Nordeste 0 -- -- 46
2020-06-30 06:00:00 23.6 19 Nordeste 33 Nordeste 0 -- -- 41
2020-06-30 05:00:00 21.2 24 Nordeste 35 Nordeste 0 -- -- 47
2020-06-30 04:00:00 21.2 25 Nordeste 35 Nordeste 0 -- -- 46
2020-06-30 03:00:00 24.7 14 Este 28 Este 0 -- -- 39
2020-06-30 02:00:00 23.7 15 Este 31 Nordeste 0 -- -- 38
2020-06-30 01:00:00 23.2 18 Nordeste 37 Nordeste 0 -- -- 36
2020-06-30 00:00:00 23.7 20 Nordeste 26 Nordeste 0 -- -- 33
2020-06-29 23:00:00 22.5 9 Nordeste 14 Nordeste 0 -- -- 39
2020-06-29 22:00:00 23.1 8 Este 14 Nordeste 0 -- -- 41
2020-06-29 21:00:00 26.1 11 Nordeste 15 Nordeste 0 -- -- 36
2020-06-29 20:00:00 31.3 7 Oeste 21 Sudoeste 0 -- -- 28
2020-06-29 19:00:00 31.3 14 Sudoeste 28 Sudoeste 0 -- -- 28
2020-06-29 18:00:00 31.3 17 Sudoeste 26 Sudoeste 0 -- -- 30
2020-06-29 17:00:00 31.4 15 Sudoeste 29 Oeste 0 -- -- 33
2020-06-29 16:00:00 30.9 17 Sudoeste 27 Sudoeste 0 -- -- 31
2020-06-29 15:00:00 30.3 18 Oeste 28 Oeste 0 -- -- 33
2020-06-29 14:00:00 29.3 14 Sudoeste 27 Sudoeste 0 -- -- 36
2020-06-29 13:00:00 28.3 16 Sudoeste 26 Sudoeste 0 -- -- 39
2020-06-29 12:00:00 26.6 15 Sudoeste 20 Sudoeste 0 -- -- 43
2020-06-29 11:00:00 25.5 10 Sudoeste 14 Sudoeste 0 -- -- 48
2020-06-29 10:00:00 23.7 5 Este 33 Nordeste 0 -- -- 55
2020-06-29 09:00:00 19.6 22 Nordeste 39 Nordeste 0 -- -- 67
2020-06-29 08:00:00 17.4 26 Nordeste 40 Norte 0 -- -- 73
2020-06-29 07:00:00 18.2 25 Nordeste 39 Nordeste 0 -- -- 70
2020-06-29 06:00:00 18 27 Nordeste 38 Este 0 -- -- 71
2020-06-29 05:00:00 19 25 Este 36 Este 0 -- -- 68
2020-06-29 04:00:00 19.5 26 Este 41 Nordeste 0 -- -- 66
2020-06-29 03:00:00 19 23 Nordeste 35 Nordeste 0 -- -- 67
2020-06-29 02:00:00 19.1 26 Nordeste 39 Nordeste 0 -- -- 67
2020-06-29 01:00:00 20.2 24 Nordeste 36 Nordeste 0 -- -- 61
2020-06-29 00:00:00 21.3 18 Nordeste 31 Nordeste 0 -- -- 55
2020-06-28 23:00:00 22.2 18 Nordeste 25 Nordeste 0 -- -- 54
2020-06-28 22:00:00 23.3 9 Este 14 Este 0 -- -- 53
2020-06-28 21:00:00 26.5 6 Nordeste 19 Sudoeste 0 -- -- 50
2020-06-28 20:00:00 29.7 12 Sudoeste 20 Sudoeste 0 -- -- 39
2020-06-28 19:00:00 30.2 14 Sudoeste 24 Sudoeste 0 -- -- 40
2020-06-28 18:00:00 30.5 13 Sudoeste 27 Sudoeste 0 -- -- 39
2020-06-28 17:00:00 30.4 13 Oeste 27 Sudoeste 0 -- -- 40
2020-06-28 16:00:00 29.6 14 Sudoeste 25 Sudoeste 0 -- -- 41
2020-06-28 15:00:00 29 10 Sur 22 Sudoeste 0 -- -- 42
2020-06-28 14:00:00 27.7 8 Sudoeste 19 Sudoeste 0 -- -- 45
2020-06-28 13:00:00 25.9 7 Sur 18 Sudoeste 0 -- -- 50
2020-06-28 12:00:00 24.6 12 Sudoeste 24 Nordeste 0 -- -- 51
2020-06-28 11:00:00 21.9 19 Nordeste 31 Nordeste 0 -- -- 61
2020-06-28 10:00:00 20.1 22 Nordeste 35 Nordeste 0 -- -- 64
2020-06-28 09:00:00 18.6 21 Este 37 Nordeste 0 -- -- 66
2020-06-28 08:00:00 17.3 28 Nordeste 39 Nordeste 0 -- -- 72
2020-06-28 07:00:00 16 22 Nordeste 35 Nordeste 0 -- -- 77
2020-06-28 06:00:00 16.5 22 Nordeste 43 Nordeste 0 -- -- 76
2020-06-28 05:00:00 16.8 23 Nordeste 44 Nordeste 0 -- -- 72
2020-06-28 04:00:00 17 22 Nordeste 38 Nordeste 0 -- -- 72
2020-06-28 03:00:00 17.5 20 Nordeste 39 Nordeste 0 -- -- 68
2020-06-28 02:00:00 17.5 25 Nordeste 35 Nordeste 0 -- -- 68
2020-06-28 01:00:00 18.1 23 Nordeste 33 Nordeste 0 -- -- 66
2020-06-28 00:00:00 19.1 21 Nordeste 33 Nordeste 0 -- -- 63
2020-06-27 23:00:00 19.8 20 Nordeste 27 Este 0 -- -- 62
2020-06-27 22:00:00 21.3 14 Nordeste 22 Nordeste 0 -- -- 58
2020-06-27 21:00:00 24.8 11 Norte 19 Sudoeste 0 -- -- 51
2020-06-27 20:00:00 27.7 12 Sudoeste 24 Sudoeste 0 -- -- 40
2020-06-27 19:00:00 28 14 Sudoeste 32 Sudoeste 0 -- -- 38
2020-06-27 18:00:00 28 13 Sudoeste 32 Sudoeste 0 -- -- 38
2020-06-27 17:00:00 27.2 14 Sudoeste 27 Sudoeste 0 -- -- 38
2020-06-27 16:00:00 27.1 15 Sudoeste 33 Sudoeste 0 -- -- 42
2020-06-27 15:00:00 26.2 18 Sudoeste 27 Sudoeste 0 -- -- 45
2020-06-27 14:00:00 24.9 14 Sudoeste 22 Oeste 0 -- -- 46
2020-06-27 13:00:00 22.9 13 Sudoeste 18 Sudoeste 0 -- -- 50
2020-06-27 12:00:00 22.1 11 Sudoeste 17 Sudoeste 0 -- -- 52
2020-06-27 11:00:00 20.1 15 Nordeste 36 Nordeste 0 -- -- 62
2020-06-27 10:00:00 17.6 25 Nordeste 41 Nordeste 0 -- -- 69
2020-06-27 09:00:00 16 26 Nordeste 40 Nordeste 0 -- -- 74
2020-06-27 08:00:00 15.4 27 Nordeste 39 Nordeste 0 -- -- 76
2020-06-27 07:00:00 14.5 30 Nordeste 44 Nordeste 0 -- -- 77
2020-06-27 06:00:00 14.7 26 Nordeste 45 Nordeste 0 -- -- 76
2020-06-27 05:00:00 15.4 26 Este 37 Este 0 -- -- 72
2020-06-27 04:00:00 15.8 21 Este 34 Nordeste 0 -- -- 70
2020-06-27 03:00:00 16.4 19 Nordeste 33 Este 0 -- -- 69
2020-06-27 02:00:00 16.3 19 Nordeste 33 Este 0 -- -- 67
2020-06-27 01:00:00 17.1 19 Nordeste 31 Nordeste 0 -- -- 60
2020-06-27 00:00:00 17.4 17 Nordeste 25 Nordeste 0 -- -- 55
2020-06-26 23:00:00 17.8 9 Nordeste 14 Nordeste 0 -- -- 55
2020-06-26 22:00:00 18.5 6 Este 13 Este 0 -- -- 52
2020-06-26 21:00:00 20.6 10 Nordeste 14 Nordeste 0 -- -- 46
2020-06-26 20:00:00 24.7 8 Oeste 18 Sudoeste 0 -- -- 33
2020-06-26 19:00:00 23.4 15 Sudoeste 26 Sudoeste 0 -- -- 33
2020-06-26 18:00:00 24.9 21 Sudoeste 32 Sudoeste 0 -- -- 30
2020-06-26 17:00:00 25.2 22 Sudoeste 32 Sudoeste 0 -- -- 33
2020-06-26 16:00:00 25.2 19 Sudoeste 34 Sudoeste 0 -- -- 35
2020-06-26 15:00:00 23.9 23 Sudoeste 34 Sudoeste 0 -- -- 35
2020-06-26 14:00:00 23.6 22 Sudoeste 32 Oeste 0 -- -- 37
2020-06-26 13:00:00 22.6 19 Sudoeste 26 Sudoeste 0 -- -- 41
2020-06-26 12:00:00 19.4 10 Sudoeste 18 Sudoeste 0 -- -- 56
2020-06-26 11:00:00 18.6 11 Sudoeste 16 Sudoeste 0 -- -- 60
2020-06-26 10:00:00 18.7 6 Sur 18 Sudoeste 0 -- -- 62
2020-06-26 09:00:00 17.9 4 Sur 9 Sudeste 0 -- -- 62
2020-06-26 08:00:00 14.4 4 Este 9 Este 0 -- -- 67
2020-06-26 07:00:00 16.8 7 Sudeste 11 Sudeste 0 -- -- 57
2020-06-26 06:00:00 17.1 7 Sudeste 10 Sudeste 0 -- -- 62
2020-06-26 05:00:00 17.4 4 Sudeste 18 Nordeste 0 -- -- 62
2020-06-26 04:00:00 18.6 14 Nordeste 23 Este 0 -- -- 60
2020-06-26 03:00:00 17.8 11 Nordeste 19 Nordeste 0 -- -- 65
2020-06-26 02:00:00 18.1 8 Sudeste 14 Sudeste 0 -- -- 64
2020-06-26 01:00:00 18.8 7 Este 12 Nordeste 0 -- -- 62
2020-06-26 00:00:00 19.6 6 Este 12 Este 0 -- -- 58
2020-06-25 23:00:00 20.4 6 Este 12 Este 0 -- -- 56
2020-06-25 22:00:00 21.9 4 Este 8 Este 0 -- -- 55
2020-06-25 21:00:00 26.1 5 Oeste 22 Oeste 0 -- -- 46
2020-06-25 20:00:00 26.5 11 Sudoeste 19 Sudoeste 0 -- -- 43
2020-06-25 19:00:00 26.7 14 Sudoeste 30 Sudoeste 0 -- -- 41
2020-06-25 18:00:00 28.6 16 Oeste 33 Oeste 0 -- -- 35
2020-06-25 17:00:00 27.6 21 Sudoeste 49 Sudoeste 0 -- -- 36
2020-06-25 16:00:00 28.6 19 Oeste 32 Sudoeste 0 -- -- 35
2020-06-25 15:00:00 27.8 21 Sudoeste 34 Sudoeste 0 -- -- 37
2020-06-25 14:00:00 27.1 23 Sudoeste 32 Sudoeste 0 -- -- 37
2020-06-25 13:00:00 26.2 16 Sudoeste 24 Sudoeste 0 -- -- 43
2020-06-25 12:00:00 24.7 15 Sudoeste 20 Sudoeste 0 -- -- 49
2020-06-25 11:00:00 23.3 8 Sudoeste 13 Sudoeste 0 -- -- 50
2020-06-25 10:00:00 23 6 Sudoeste 12 Sur 0 -- -- 48
2020-06-25 09:00:00 20.9 4 Sudeste 13 Sudeste 0 -- -- 56
2020-06-25 08:00:00 18.8 7 Este 14 Este 0 -- -- 58
2020-06-25 07:00:00 19.1 9 Sudeste 13 Sudeste 0 -- -- 55
2020-06-25 06:00:00 19.5 7 Sudeste 12 Este 0 -- -- 55
2020-06-25 05:00:00 20.8 9 Este 32 Nordeste 0 -- -- 51
2020-06-25 04:00:00 22.6 9 Este 31 Nordeste 0 -- -- 47
2020-06-25 03:00:00 22.5 18 Nordeste 28 Nordeste 0 -- -- 48
2020-06-25 02:00:00 22.1 15 Nordeste 23 Nordeste 0 -- -- 48
2020-06-25 01:00:00 21.6 8 Este 13 Sudeste 0 -- -- 53
2020-06-25 00:00:00 22 8 Este 15 Nordeste 0 -- -- 52
2020-06-24 23:00:00 22.3 10 Este 13 Sudeste 0 -- -- 51
2020-06-24 22:00:00 23.4 10 Este 13 Este 0 -- -- 49
2020-06-24 21:00:00 28.1 2 Sur 25 Sudoeste 0 -- -- 41
2020-06-24 20:00:00 30.1 12 Oeste 32 Oeste 0 -- -- 32
2020-06-24 19:00:00 31.1 18 Oeste 37 Oeste 0 -- -- 32
2020-06-24 18:00:00 31.9 13 Oeste 35 Oeste 0 -- -- 33
2020-06-24 17:00:00 31.5 19 Sudoeste 41 Oeste 0 -- -- 33
2020-06-24 16:00:00 31.1 22 Sudoeste 37 Oeste 0 -- -- 32
2020-06-24 15:00:00 31 22 Oeste 38 Sudoeste 0 -- -- 28
2020-06-24 14:00:00 30.3 15 Sudoeste 27 Sudoeste 0 -- -- 33
2020-06-24 13:00:00 29.3 8 Sudoeste 18 Sudoeste 0 -- -- 39
2020-06-24 12:00:00 28.3 5 Sur 13 Oeste 0 -- -- 38
2020-06-24 11:00:00 27 7 Sudoeste 11 Sudoeste 0 -- -- 39
2020-06-24 10:00:00 25.8 4 Sur 11 Sudeste 0 -- -- 41
2020-06-24 09:00:00 22.3 9 Sudeste 12 Este 0 -- -- 49
2020-06-24 08:00:00 21.8 5 Este 21 Sudeste 0 -- -- 45
2020-06-24 07:00:00 23.8 3 Este 27 Sudoeste 0 -- -- 39
2020-06-24 06:00:00 26.2 12 Sudeste 28 Nordeste 0 -- -- 30
2020-06-24 05:00:00 23.3 9 Nordeste 30 Nordeste 0 -- -- 38
2020-06-24 04:00:00 23.8 21 Nordeste 33 Nordeste 0 -- -- 37
2020-06-24 03:00:00 24 12 Nordeste 33 Nordeste 0 -- -- 36
2020-06-24 02:00:00 24.4 15 Nordeste 26 Nordeste 0 -- -- 37
2020-06-24 01:00:00 26.4 15 Este 23 Nordeste 0 -- -- 34
2020-06-24 00:00:00 24.6 19 Nordeste 26 Nordeste 0 -- -- 35
2020-06-23 23:00:00 23.8 8 Nordeste 15 Nordeste 0 -- -- 38
2020-06-23 22:00:00 25.1 10 Este 13 Nordeste 0 -- -- 39
2020-06-23 21:00:00 27.3 12 Nordeste 15 Nordeste 0 -- -- 43
2020-06-23 20:00:00 31.3 4 Nordeste 14 Noroeste 0 -- -- 32
2020-06-23 19:00:00 32.7 9 Noroeste 20 Oeste 0 -- -- 28
2020-06-23 18:00:00 33.4 13 Oeste 30 Noroeste 0 -- -- 24
2020-06-23 17:00:00 33.1 16 Oeste 27 Sudoeste 0 -- -- 27
2020-06-23 16:00:00 32.5 14 Oeste 27 Sudoeste 0 -- -- 28
2020-06-23 15:00:00 32 13 Sudoeste 26 Sudoeste 0 -- -- 28
2020-06-23 14:00:00 31.5 14 Sudoeste 23 Oeste 0 -- -- 30
2020-06-23 13:00:00 30.1 11 Sudoeste 18 Sudoeste 0 -- -- 33
2020-06-23 12:00:00 29.5 6 Sudoeste 14 Sudoeste 0 -- -- 34
2020-06-23 11:00:00 28.2 6 Sudoeste 10 Sudoeste 0 -- -- 36
2020-06-23 10:00:00 25.9 7 Este 25 Nordeste 0 -- -- 39
2020-06-23 09:00:00 23.2 18 Nordeste 37 Nordeste 0 -- -- 42
2020-06-23 08:00:00 21.6 30 Nordeste 46 Nordeste 0 -- -- 40
2020-06-23 07:00:00 21.5 20 Nordeste 33 Nordeste 0 -- -- 39
2020-06-23 06:00:00 23.3 17 Este 31 Nordeste 0 -- -- 35
2020-06-23 05:00:00 21.6 18 Nordeste 38 Nordeste 0 -- -- 39
2020-06-23 04:00:00 22.6 28 Nordeste 40 Nordeste 0 -- -- 37
2020-06-23 03:00:00 25.3 18 Este 28 Este 0 -- -- 32
2020-06-23 02:00:00 25.2 20 Este 29 Este 0 -- -- 33
2020-06-23 01:00:00 25.4 18 Este 28 Este 0 -- -- 33
2020-06-23 00:00:00 25.6 21 Este 30 Nordeste 0 -- -- 32
2020-06-22 23:00:00 24.2 20 Nordeste 26 Nordeste 0 -- -- 33
2020-06-22 22:00:00 23.7 8 Nordeste 18 Nordeste 0 -- -- 36
2020-06-22 21:00:00 26.5 13 Nordeste 17 Nordeste 0 -- -- 35
2020-06-22 20:00:00 31.7 3 Noroeste 13 Oeste 0 -- -- 28
2020-06-22 19:00:00 32.1 10 Oeste 21 Sudoeste 0 -- -- 24
2020-06-22 18:00:00 32.2 12 Oeste 23 Oeste 0 -- -- 23
2020-06-22 17:00:00 31.8 14 Sudoeste 24 Sudoeste 0 -- -- 23
2020-06-22 16:00:00 31.6 15 Sudoeste 27 Sudoeste 0 -- -- 22
2020-06-22 15:00:00 31.2 12 Oeste 27 Oeste 0 -- -- 25
2020-06-22 14:00:00 31.2 15 Sudoeste 25 Oeste 0 -- -- 27
2020-06-22 13:00:00 29.2 6 Este 20 Nordeste 0 -- -- 29
2020-06-22 12:00:00 27 15 Nordeste 32 Este 0 -- -- 33
2020-06-22 11:00:00 24.6 19 Este 36 Este 0 -- -- 38
2020-06-22 10:00:00 23.1 26 Este 42 Este 0 -- -- 37
2020-06-22 09:00:00 21.6 26 Este 36 Este 0 -- -- 36
2020-06-22 08:00:00 21.1 23 Este 35 Este 0 -- -- 35
2020-06-22 07:00:00 20.8 22 Este 36 Este 0 -- -- 41
2020-06-22 06:00:00 18.6 16 Nordeste 50 Nordeste 0 -- -- 55
2020-06-22 05:00:00 19.7 23 Nordeste 44 Nordeste 0 -- -- 52
2020-06-22 04:00:00 20.6 22 Este 38 Este 0 -- -- 50
2020-06-22 03:00:00 19.7 22 Este 34 Este 0 -- -- 46
2020-06-22 02:00:00 19.2 19 Nordeste 32 Este 0 -- -- 50
2020-06-22 01:00:00 21.5 18 Este 35 Este 0 -- -- 36
2020-06-22 00:00:00 20.6 24 Nordeste 34 Nordeste 0 -- -- 38
2020-06-21 23:00:00 21.8 17 Nordeste 32 Nordeste 0 -- -- 35
2020-06-21 22:00:00 24 18 Este 24 Este 0 -- -- 34
2020-06-21 21:00:00 25.4 14 Nordeste 22 Nordeste 0 -- -- 37
2020-06-21 20:00:00 27.9 12 Nordeste 21 Nordeste 0 -- -- 33
2020-06-21 19:00:00 28.9 11 Nordeste 21 Nordeste 0 -- -- 29
2020-06-21 18:00:00 29.6 10 Norte 20 Nordeste 0 -- -- 29
2020-06-21 17:00:00 29 9 Norte 25 Nordeste 0 -- -- 33
2020-06-21 16:00:00 28.4 10 Nordeste 31 Sur 0 -- -- 37
2020-06-21 15:00:00 29 10 Sudoeste 21 Sudoeste 0 -- -- 37
2020-06-21 14:00:00 28.2 13 Sudoeste 21 Noroeste 0 -- -- 38
2020-06-21 13:00:00 26.2 8 Nordeste 22 Nordeste 0 -- -- 39
2020-06-21 12:00:00 23.9 17 Nordeste 29 Nordeste 0 -- -- 48
2020-06-21 11:00:00 22 19 Nordeste 52 Este 0 -- -- 49
2020-06-21 10:00:00 19.2 27 Este 48 Nordeste 0 -- -- 56
2020-06-21 09:00:00 17 31 Nordeste 45 Nordeste 0 -- -- 63
2020-06-21 08:00:00 15.1 28 Nordeste 41 Nordeste 0 -- -- 67
2020-06-21 07:00:00 16.6 28 Nordeste 40 Nordeste 0 -- -- 62
2020-06-21 06:00:00 16.5 24 Nordeste 59 Este 0 -- -- 62
2020-06-21 05:00:00 16.4 35 Este 45 Nordeste 0 -- -- 59
2020-06-21 04:00:00 18.3 26 Nordeste 37 Nordeste 0 -- -- 55
2020-06-21 03:00:00 18 21 Nordeste 35 Nordeste 0 -- -- 56
2020-06-21 02:00:00 18.6 22 Este 37 Nordeste 0 -- -- 51
2020-06-21 01:00:00 18.8 20 Este 36 Nordeste 0 -- -- 49
2020-06-21 00:00:00 19.4 21 Nordeste 28 Nordeste 0 -- -- 47
2020-06-20 23:00:00 19.2 7 Este 14 Nordeste 0 -- -- 48
2020-06-20 22:00:00 20.6 8 Nordeste 17 Norte 0 -- -- 46
2020-06-20 21:00:00 23.1 11 Nordeste 19 Sudoeste 0 -- -- 41
2020-06-20 20:00:00 27.7 13 Sudoeste 25 Sudoeste 0 -- -- 29
2020-06-20 19:00:00 27.6 18 Sudoeste 28 Oeste 0 -- -- 30
2020-06-20 18:00:00 27.8 17 Sudoeste 32 Sudoeste 0 -- -- 31
2020-06-20 17:00:00 27.8 17 Sudoeste 27 Sudoeste 0 -- -- 33
2020-06-20 16:00:00 27.5 13 Sudoeste 27 Sudoeste 0 -- -- 33
2020-06-20 15:00:00 26.9 15 Sudoeste 30 Oeste 0 -- -- 37
2020-06-20 14:00:00 26 17 Sudoeste 26 Sudoeste 0 -- -- 37
2020-06-20 13:00:00 24.8 16 Sudoeste 24 Sudoeste 0 -- -- 38
2020-06-20 12:00:00 24.1 14 Sudoeste 21 Sudoeste 0 -- -- 40
2020-06-20 11:00:00 23.1 9 Sudoeste 14 Sudoeste 0 -- -- 43
2020-06-20 10:00:00 21.9 3 Este 26 Este 0 -- -- 41
2020-06-20 09:00:00 18.1 18 Nordeste 28 Nordeste 0 -- -- 55
2020-06-20 08:00:00 16.4 18 Nordeste 30 Nordeste 0 -- -- 57
2020-06-20 07:00:00 14.5 21 Nordeste 36 Nordeste 0 -- -- 63
2020-06-20 06:00:00 16 27 Nordeste 36 Nordeste 0 -- -- 57
2020-06-20 05:00:00 16.5 27 Este 50 Este 0 -- -- 54
2020-06-20 04:00:00 15.7 22 Nordeste 39 Nordeste 0 -- -- 54
2020-06-20 03:00:00 15.8 26 Nordeste 35 Nordeste 0 -- -- 53
2020-06-20 02:00:00 16.4 26 Nordeste 33 Nordeste 0 -- -- 51
2020-06-20 01:00:00 17.4 20 Nordeste 33 Nordeste 0 -- -- 48
2020-06-20 00:00:00 18.3 15 Nordeste 24 Nordeste 0 -- -- 45
2020-06-19 23:00:00 17.4 9 Este 14 Nordeste 0 -- -- 49
2020-06-19 22:00:00 18.8 9 Nordeste 14 Este 0 -- -- 47
2020-06-19 21:00:00 22.2 7 Nordeste 19 Oeste 0 -- -- 40
2020-06-19 20:00:00 25.5 13 Oeste 24 Sudoeste 0 -- -- 32
2020-06-19 19:00:00 25.9 17 Sudoeste 29 Sudoeste 0 -- -- 29
2020-06-19 18:00:00 26.2 18 Sudoeste 31 Sudoeste 0 -- -- 33
2020-06-19 17:00:00 25.9 15 Sudoeste 32 Sudoeste 0 -- -- 38
2020-06-19 16:00:00 25.2 17 Sudoeste 30 Sudoeste 0 -- -- 37
2020-06-19 15:00:00 24.7 17 Sudoeste 27 Oeste 0 -- -- 38
2020-06-19 14:00:00 24.1 16 Sudoeste 28 Oeste 0 -- -- 38
2020-06-19 13:00:00 23 18 Sudoeste 28 Sudoeste 0 -- -- 39
2020-06-19 12:00:00 21.9 19 Sudoeste 27 Sudoeste 0 -- -- 48
2020-06-19 11:00:00 21.5 17 Sudoeste 22 Oeste 0 -- -- 44
2020-06-19 10:00:00 20 3 Sudeste 24 Nordeste 0 -- -- 47
2020-06-19 09:00:00 15.8 19 Nordeste 30 Nordeste 0 -- -- 60
2020-06-19 08:00:00 13.6 19 Nordeste 35 Nordeste 0 -- -- 65
2020-06-19 07:00:00 13.7 21 Nordeste 43 Este 0 -- -- 63
2020-06-19 06:00:00 14 24 Nordeste 34 Nordeste 0 -- -- 62
2020-06-19 05:00:00 13.6 18 Nordeste 33 Nordeste 0 -- -- 63
2020-06-19 04:00:00 13.3 27 Nordeste 39 Nordeste 0 -- -- 64
2020-06-19 03:00:00 14.3 18 Nordeste 35 Este 0 -- -- 59
2020-06-19 02:00:00 15.2 19 Este 40 Nordeste 0 -- -- 54
2020-06-19 01:00:00 15.3 23 Nordeste 33 Nordeste 0 -- -- 53
2020-06-19 00:00:00 16.4 21 Nordeste 36 Nordeste 0 -- -- 51
2020-06-18 23:00:00 16.6 17 Nordeste 22 Nordeste 0 -- -- 57
2020-06-18 22:00:00 17.8 8 Nordeste 12 Nordeste 0 -- -- 57
2020-06-18 21:00:00 22.6 4 Noroeste 26 Sudoeste 0 -- -- 45
2020-06-18 20:00:00 24.5 15 Sudoeste 24 Oeste 0 -- -- 38
2020-06-18 19:00:00 24.9 17 Sudoeste 25 Sudoeste 0 -- -- 37
2020-06-18 18:00:00 25.2 16 Sudoeste 30 Sudoeste 0 -- -- 38
2020-06-18 17:00:00 25 15 Sudoeste 28 Sudoeste 0 -- -- 37
2020-06-18 16:00:00 24.8 16 Sudoeste 29 Oeste 0 -- -- 39
2020-06-18 15:00:00 24.3 14 Sudoeste 31 Sudoeste 0 -- -- 39
2020-06-18 14:00:00 23.6 17 Sudoeste 31 Sudoeste 0 -- -- 44
2020-06-18 13:00:00 22.2 18 Sudoeste 26 Sudoeste 0 -- -- 44
2020-06-18 12:00:00 21 15 Sudoeste 20 Sudoeste 0 -- -- 46
2020-06-18 11:00:00 19.7 5 Sudoeste 23 Nordeste 0 -- -- 48
2020-06-18 10:00:00 16.3 19 Nordeste 36 Nordeste 0 -- -- 57
2020-06-18 09:00:00 13.9 21 Nordeste 38 Nordeste 0 -- -- 65
2020-06-18 08:00:00 12.6 27 Nordeste 36 Nordeste 0 -- -- 66
2020-06-18 07:00:00 12.8 23 Nordeste 30 Nordeste 0 -- -- 64
2020-06-18 06:00:00 12.8 18 Nordeste 31 Nordeste 0 -- -- 64
2020-06-18 05:00:00 13.3 24 Este 42 Nordeste 0 -- -- 62
2020-06-18 04:00:00 13.8 13 Nordeste 31 Este 0 -- -- 60
2020-06-18 03:00:00 14.1 18 Este 29 Nordeste 0 -- -- 59
2020-06-18 02:00:00 14.7 19 Nordeste 30 Nordeste 0 -- -- 58
2020-06-18 01:00:00 15.1 18 Nordeste 23 Nordeste 0 -- -- 57
2020-06-18 00:00:00 15.5 18 Nordeste 27 Nordeste 0 -- -- 57
2020-06-17 23:00:00 15 10 Nordeste 13 Nordeste 0 -- -- 60
2020-06-17 22:00:00 16.3 6 Este 11 Sudeste 0 -- -- 56
2020-06-17 21:00:00 18.6 7 Sur 22 Oeste 0 -- -- 47
2020-06-17 20:00:00 22.1 12 Sudoeste 23 Sudoeste 0 -- -- 39
2020-06-17 19:00:00 22.8 14 Sudoeste 30 Sudoeste 0 -- -- 38
2020-06-17 18:00:00 22.9 17 Sudoeste 31 Oeste 0 -- -- 40
2020-06-17 17:00:00 22.9 16 Sudoeste 36 Sudoeste 0 -- -- 40
2020-06-17 16:00:00 22.4 15 Oeste 30 Sudoeste 0 -- -- 40
2020-06-17 15:00:00 22 17 Sudoeste 29 Sudoeste 0 -- -- 44
2020-06-17 14:00:00 20.9 17 Sudoeste 29 Oeste 0 -- -- 46
2020-06-17 13:00:00 19.1 16 Sudoeste 24 Sudoeste 0 -- -- 51
2020-06-17 12:00:00 18.6 12 Sudoeste 22 Nordeste 0 -- -- 48
2020-06-17 11:00:00 15.9 14 Nordeste 31 Nordeste 0 -- -- 61
2020-06-17 10:00:00 13.3 21 Nordeste 32 Nordeste 0 -- -- 66
2020-06-17 09:00:00 11.3 23 Nordeste 35 Nordeste 0 -- -- 74
2020-06-17 08:00:00 10 21 Nordeste 37 Nordeste 0 -- -- 78
2020-06-17 07:00:00 9.9 24 Nordeste 39 Nordeste 0 -- -- 78
2020-06-17 06:00:00 10.1 24 Este 42 Nordeste 0 -- -- 76
2020-06-17 05:00:00 10.7 16 Nordeste 36 Este 0 -- -- 74
2020-06-17 04:00:00 10.8 17 Este 31 Este 0 -- -- 73
2020-06-17 03:00:00 11 24 Nordeste 35 Nordeste 0 -- -- 71
2020-06-17 02:00:00 12.9 20 Este 41 Este 0 -- -- 62
2020-06-17 01:00:00 13.5 22 Este 34 Este 0 -- -- 62
2020-06-17 00:00:00 13.5 9 Este 22 Este 0 -- -- 62
2020-06-16 23:00:00 14.4 5 Nordeste 22 Oeste 0 -- -- 63
2020-06-16 22:00:00 16.3 6 Oeste 20 Oeste 0 -- -- 53
2020-06-16 21:00:00 18.5 12 Oeste 27 Sudoeste 0 -- -- 48
2020-06-16 20:00:00 18.2 10 Sudoeste 30 Sudoeste 0 -- -- 59
2020-06-16 19:00:00 19.3 20 Sudoeste 34 Sudoeste 0 -- -- 55
2020-06-16 18:00:00 19.8 17 Sudoeste 37 Sudoeste 0 -- -- 48
2020-06-16 17:00:00 20.4 14 Sudoeste 33 Sudoeste 0 -- -- 47
2020-06-16 16:00:00 22 21 Sudoeste 38 Oeste 0 -- -- 44
2020-06-16 15:00:00 21.2 23 Sudoeste 35 Sudoeste 0 -- -- 47
2020-06-16 14:00:00 20.4 22 Sudoeste 34 Sudoeste 0 -- -- 46
2020-06-16 13:00:00 21.8 12 Sudoeste 24 Sudoeste 0 -- -- 45
2020-06-16 12:00:00 20 7 Nordeste 27 Nordeste 0 -- -- 50
2020-06-16 11:00:00 17 17 Nordeste 34 Nordeste 0 -- -- 55
2020-06-16 10:00:00 13.9 24 Nordeste 39 Este 0 -- -- 72
2020-06-16 09:00:00 13 19 Nordeste 35 Nordeste 0 -- -- 77
2020-06-16 08:00:00 12.3 26 Este 41 Este 0 -- -- 76
2020-06-16 07:00:00 12 22 Nordeste 38 Nordeste 0 -- -- 78
2020-06-16 06:00:00 12.8 14 Nordeste 33 Nordeste 0 -- -- 73
2020-06-16 05:00:00 13.1 15 Nordeste 33 Este 0 -- -- 71
2020-06-16 04:00:00 12.7 18 Este 32 Nordeste 0 -- -- 74
2020-06-16 03:00:00 13 18 Nordeste 33 Este 0 -- -- 72
2020-06-16 02:00:00 13.3 14 Nordeste 35 Nordeste 0 -- -- 70
2020-06-16 01:00:00 13.3 19 Nordeste 32 Nordeste 0 -- -- 70
2020-06-16 00:00:00 14.6 18 Este 36 Nordeste 0 -- -- 65
2020-06-15 23:00:00 15.4 19 Nordeste 28 Nordeste 0 -- -- 62
2020-06-15 22:00:00 17.3 18 Este 28 Este 0 -- -- 56
2020-06-15 21:00:00 19.9 9 Sudoeste 28 Sudoeste 0 -- -- 51
2020-06-15 20:00:00 22 18 Sudoeste 31 Sudoeste 0 -- -- 47
2020-06-15 19:00:00 22.6 18 Sudoeste 31 Sudoeste 0 -- -- 44
2020-06-15 18:00:00 22.9 19 Sudoeste 29 Sudoeste 0 -- -- 44
2020-06-15 17:00:00 23.2 18 Sudoeste 32 Oeste 0 -- -- 46
2020-06-15 16:00:00 23.1 17 Sudoeste 31 Sudoeste 0 -- -- 46
2020-06-15 15:00:00 22.7 18 Sudoeste 32 Sudoeste 0 -- -- 45
2020-06-15 14:00:00 21.8 14 Sudoeste 23 Sudoeste 0 -- -- 51
2020-06-15 13:00:00 20.4 11 Sudoeste 23 Sudoeste 0 -- -- 54
2020-06-15 12:00:00 18.6 6 Norte 25 Este 0 -- -- 56
2020-06-15 11:00:00 16.1 19 Nordeste 42 Nordeste 0 -- -- 66
2020-06-15 10:00:00 14 24 Nordeste 34 Nordeste 0 -- -- 71
2020-06-15 09:00:00 12.3 23 Nordeste 34 Nordeste 0 -- -- 75
2020-06-15 08:00:00 11.5 26 Nordeste 36 Nordeste 0 -- -- 77
2020-06-15 07:00:00 11.7 19 Nordeste 37 Nordeste 0 -- -- 76
2020-06-15 06:00:00 11.8 21 Nordeste 35 Nordeste 0 -- -- 75
2020-06-15 05:00:00 12.4 22 Nordeste 32 Nordeste 0 -- -- 73
2020-06-15 04:00:00 12.2 20 Nordeste 31 Este 0 -- -- 73
2020-06-15 03:00:00 12.1 19 Nordeste 30 Nordeste 0 -- -- 74
2020-06-15 02:00:00 12.3 18 Nordeste 30 Nordeste 0 -- -- 73
2020-06-15 01:00:00 12.6 22 Nordeste 31 Nordeste 0 -- -- 72
2020-06-15 00:00:00 13.8 18 Nordeste 26 Nordeste 0 -- -- 67
2020-06-14 23:00:00 14.7 14 Nordeste 22 Nordeste 0 -- -- 63
2020-06-14 22:00:00 15.1 6 Nordeste 13 Este 0 -- -- 65
2020-06-14 21:00:00 18.3 8 Sur 24 Sudoeste 0 -- -- 52
2020-06-14 20:00:00 19.1 9 Sudoeste 27 Sudoeste 0 -- -- 50
2020-06-14 19:00:00 20.7 16 Sudoeste 36 Sudoeste 0 -- -- 44
2020-06-14 18:00:00 22.3 15 Sudoeste 31 Oeste 0 -- -- 43
2020-06-14 17:00:00 21.6 18 Sudoeste 28 Sudoeste 0 -- -- 43
2020-06-14 16:00:00 21.2 17 Sudoeste 29 Sudoeste 0 -- -- 46
2020-06-14 15:00:00 21.1 15 Sudoeste 27 Sudoeste 0 -- -- 45
2020-06-14 14:00:00 19.9 17 Sudoeste 28 Sudoeste 0 -- -- 47
2020-06-14 13:00:00 19 17 Sudoeste 28 Sudoeste 0 -- -- 48
2020-06-14 12:00:00 17.7 15 Sudoeste 22 Sudoeste 0 -- -- 55
2020-06-14 11:00:00 16.2 14 Sudoeste 20 Sudoeste 0 -- -- 56
2020-06-14 10:00:00 15.3 4 Sur 6 Sudeste 0 -- -- 56
2020-06-14 09:00:00 12.4 5 Este 28 Nordeste 0 -- -- 69
2020-06-14 08:00:00 10 15 Nordeste 27 Nordeste 0 -- -- 77
2020-06-14 07:00:00 9.5 17 Nordeste 23 Nordeste 0 -- -- 78
2020-06-14 06:00:00 10.5 14 Este 33 Nordeste 0 -- -- 73
2020-06-14 05:00:00 10.2 14 Nordeste 24 Este 0 -- -- 76
2020-06-14 04:00:00 10.4 14 Este 27 Este 0 -- -- 76
2020-06-14 03:00:00 11 15 Este 29 Este 0 -- -- 74
2020-06-14 02:00:00 10.9 15 Este 28 Nordeste 0 -- -- 74
2020-06-14 01:00:00 11.1 17 Nordeste 32 Nordeste 0 -- -- 70
2020-06-14 00:00:00 11.2 5 Este 11 Este 0 -- -- 72
2020-06-13 23:00:00 12.1 8 Este 14 Sudeste 0 -- -- 70
2020-06-13 22:00:00 13 6 Sudeste 9 Sudeste 0 -- -- 66
2020-06-13 21:00:00 14.9 5 Sudoeste 22 Sudoeste 0 -- -- 60
2020-06-13 20:00:00 15.4 12 Sudoeste 24 Sudoeste 0 -- -- 56
2020-06-13 19:00:00 16.1 14 Sudoeste 25 Sudoeste 0 -- -- 54
2020-06-13 18:00:00 16.6 17 Sudoeste 30 Sudoeste 0 -- -- 53
2020-06-13 17:00:00 16.6 14 Oeste 37 Sudoeste 0 -- -- 52
2020-06-13 16:00:00 18.9 20 Sudoeste 35 Sudoeste 0 -- -- 49
2020-06-13 15:00:00 16.6 18 Sudoeste 32 Sudoeste 0 -- -- 55
2020-06-13 14:00:00 18.1 17 Sudoeste 30 Oeste 0 -- -- 50
2020-06-13 13:00:00 17.7 12 Sudoeste 25 Sudoeste 0 -- -- 56
2020-06-13 12:00:00 15.8 5 Este 19 Nordeste 0 -- -- 58
2020-06-13 11:00:00 13.9 10 Nordeste 26 Nordeste 0 -- -- 66
2020-06-13 10:00:00 11.5 13 Nordeste 27 Nordeste 0 -- -- 77
2020-06-13 09:00:00 9 15 Este 25 Este 0 -- -- 84
2020-06-13 08:00:00 7.3 9 Este 13 Este 0 -- -- 90
2020-06-13 07:00:00 6.5 6 Sudeste 12 Sudeste 0 -- -- 93
2020-06-13 06:00:00 6.7 7 Sudeste 11 Sudeste 0 -- -- 93
2020-06-13 05:00:00 8 2 Norte 12 Norte 0 -- -- 92
2020-06-13 04:00:00 8.3 4 Nordeste 9 Norte 0 -- -- 94
2020-06-13 03:00:00 8.3 3 Este 10 Nordeste 0 -- -- 92
2020-06-13 02:00:00 8.9 5 Nordeste 9 Sudeste 0 -- -- 92
2020-06-13 01:00:00 9 4 Sur 9 Este 0.8 -- -- 93
2020-06-13 00:00:00 8.9 4 Este 12 Sur 0.2 -- -- 92
2020-06-12 23:00:00 9.9 3 Sudeste 12 Sudoeste 0 -- -- 90
2020-06-12 22:00:00 10.3 5 Sur 8 Sudeste 0 -- -- 89
2020-06-12 21:00:00 10.5 3 Noroeste 12 Sudoeste 0.2 -- -- 90
2020-06-12 20:00:00 10.5 12 Sudoeste 54 Sudoeste 0.6 -- -- 87
2020-06-12 19:00:00 12.5 18 Sudoeste 48 Sudoeste 0.6 -- -- 76
2020-06-12 18:00:00 13 17 Sudoeste 32 Sudoeste 0 -- -- 75
2020-06-12 17:00:00 12.6 16 Sudoeste 27 Oeste 0.6 -- -- 89
2020-06-12 16:00:00 10.6 17 Sudoeste 26 Sudoeste 0.6 -- -- 91
2020-06-12 15:00:00 10.2 13 Sudoeste 24 Sudoeste 0 -- -- 93
2020-06-12 14:00:00 9.6 10 Sudoeste 16 Sudoeste 0.2 -- -- 95
2020-06-12 13:00:00 8.2 5 Oeste 12 Sudoeste 0.6 -- -- 94
2020-06-12 12:00:00 7.5 8 Sudoeste 14 Oeste 0 -- -- 93
2020-06-12 11:00:00 7.1 5 Sudoeste 9 Sudoeste 0.2 -- -- 93
2020-06-12 10:00:00 6.7 0 Calma 7 Sudoeste 0 -- -- 91
2020-06-12 09:00:00 6.5 2 Sudoeste 8 Sudoeste 0 -- -- 89
2020-06-12 08:00:00 6.5 7 Sudoeste 22 Sudoeste 0 -- -- 86
2020-06-12 07:00:00 6.8 0 Calma 7 Nordeste 0 -- -- 78
2020-06-12 06:00:00 6.5 5 Sudeste 15 Este 0 -- -- 73
2020-06-12 05:00:00 5.8 9 Este 15 Nordeste 0 -- -- 76
2020-06-12 04:00:00 6.2 7 Nordeste 17 Nordeste 0 -- -- 74
2020-06-12 03:00:00 6.8 9 Nordeste 18 Nordeste 0 -- -- 72
2020-06-12 02:00:00 6.9 6 Este 15 Sudeste 0 -- -- 70
2020-06-12 01:00:00 8.7 8 Este 23 Sur 0 -- -- 65
2020-06-12 00:00:00 10.3 5 Sur 27 Sudoeste 0 -- -- 61
2020-06-11 23:00:00 11.5 11 Oeste 33 Sudoeste 0 -- -- 61
2020-06-11 22:00:00 13 21 Sudoeste 40 Sudoeste 0 -- -- 58
2020-06-11 21:00:00 14 22 Sudoeste 41 Sudoeste 0 -- -- 60
2020-06-11 20:00:00 15 26 Sudoeste 64 Sudoeste 0 -- -- 60
2020-06-11 19:00:00 16.6 30 Sudoeste 52 Sudoeste 0 -- -- 58
2020-06-11 18:00:00 16 24 Sudoeste 58 Sudoeste 0 -- -- 66
2020-06-11 17:00:00 17.5 21 Sudoeste 44 Sudoeste 0 -- -- 58
2020-06-11 16:00:00 17.5 23 Sudoeste 46 Sudoeste 0 -- -- 53
2020-06-11 15:00:00 18.2 21 Sudoeste 37 Sudoeste 0 -- -- 54
2020-06-11 14:00:00 18.7 19 Sudoeste 44 Sudoeste 0 -- -- 49
2020-06-11 13:00:00 18.5 28 Sudoeste 40 Sudoeste 0 -- -- 49
2020-06-11 12:00:00 17.8 11 Oeste 24 Oeste 0 -- -- 55
2020-06-11 11:00:00 17.8 12 Sudoeste 18 Sudoeste 0 -- -- 52
2020-06-11 10:00:00 16.4 9 Nordeste 26 Este 0 -- -- 58
2020-06-11 09:00:00 13.7 21 Nordeste 39 Nordeste 0 -- -- 65
2020-06-11 08:00:00 12.1 26 Nordeste 33 Nordeste 0 -- -- 69
2020-06-11 07:00:00 12.2 23 Este 34 Este 0 -- -- 69
2020-06-11 06:00:00 12.5 19 Nordeste 31 Nordeste 0 -- -- 70
2020-06-11 05:00:00 13.7 19 Nordeste 30 Nordeste 0 -- -- 65
2020-06-11 04:00:00 14 17 Este 34 Nordeste 0 -- -- 62
2020-06-11 03:00:00 14.1 18 Este 33 Nordeste 0 -- -- 51
2020-06-11 02:00:00 12.6 8 Este 11 Este 0 -- -- 58
2020-06-11 01:00:00 13.6 7 Este 12 Este 0 -- -- 50
2020-06-11 00:00:00 13.8 6 Este 13 Sudeste 0 -- -- 42